Time,TemperatureF,DewpointF,PressureIn,WindDirection,WindDirectionDegrees,WindSpeedMPH,WindSpeedGustMPH,Humidity,HourlyPrecipIn,Conditions,Clouds,dailyrainin,SoftwareType,DateUTC
2013-07-23 05:00:00,69.7,69.0,29.99,SW,219,0.0,-999.0,97,-99.99,,,0.00,weatherlink.com 1.10,2013-07-23 10:00:00,
2013-07-23 05:12:00,69.8,69.0,29.99,SW,219,0.0,-999.0,97,-99.99,,,0.00,weatherlink.com 1.10,2013-07-23 10:12:00,
2013-07-23 05:27:00,69.8,69.0,29.99,SW,228,5.0,-999.0,97,-99.99,,,0.00,weatherlink.com 1.10,2013-07-23 10:27:00,
2013-07-23 05:42:00,69.8,69.0,29.99,SW,226,3.0,-999.0,98,-99.99,,,0.00,weatherlink.com 1.10,2013-07-23 10:42:00,
2013-07-23 05:58:00,69.9,69.0,29.98,SW,219,2.0,-999.0,98,-99.99,,,0.00,weatherlink.com 1.10,2013-07-23 10:58:00,
2013-07-23 06:13:00,70.0,69.0,29.99,SSW,202,3.0,-999.0,98,-99.99,,,0.00,weatherlink.com 1.10,2013-07-23 11:13:00,
2013-07-23 06:28:00,70.0,69.0,29.99,WSW,240,4.0,-999.0,98,-99.99,,,0.00,weatherlink.com 1.10,2013-07-23 11:28:00,
2013-07-23 06:43:00,70.1,70.0,30.00,West,280,3.0,-999.0,98,-99.99,,,0.00,weatherlink.com 1.10,2013-07-23 11:43:00,
2013-07-23 06:58:00,70.0,69.0,30.01,SW,236,3.0,-999.0,98,-99.99,,,0.00,weatherlink.com 1.10,2013-07-23 11:58:00,
2013-07-23 07:13:00,70.4,70.0,30.01,WSW,242,1.0,-999.0,98,-99.99,,,0.00,weatherlink.com 1.10,2013-07-23 12:13:00,
2013-07-23 07:28:00,70.6,70.0,30.03,NNW,343,0.0,-999.0,97,-99.99,,,0.00,weatherlink.com 1.10,2013-07-23 12:28:00,
2013-07-23 07:43:00,70.9,70.0,30.01,WSW,258,0.0,-999.0,97,-99.99,,,0.00,weatherlink.com 1.10,2013-07-23 12:43:00,
2013-07-23 07:58:00,71.1,70.0,30.00,WSW,258,0.0,-999.0,97,-99.99,,,0.00,weatherlink.com 1.10,2013-07-23 12:58:00,
2013-07-23 08:13:00,71.2,70.0,30.01,SW,232,1.0,-999.0,97,-99.99,,,0.00,weatherlink.com 1.10,2013-07-23 13:13:00,
2013-07-23 08:28:00,70.8,70.0,30.02,SW,221,8.0,-999.0,96,-99.99,,,0.00,weatherlink.com 1.10,2013-07-23 13:28:00,
2013-07-23 08:43:00,70.1,69.0,30.00,SSW,210,4.0,-999.0,96,-99.99,,,0.00,weatherlink.com 1.10,2013-07-23 13:43:00,
2013-07-23 08:58:00,69.9,69.0,30.01,SSE,153,0.0,-999.0,96,-99.99,,,0.00,weatherlink.com 1.10,2013-07-23 13:58:00,
2013-07-23 09:13:00,70.0,69.0,30.02,SE,127,0.0,-999.0,96,-99.99,,,0.00,weatherlink.com 1.10,2013-07-23 14:13:00,
2013-07-23 09:28:00,69.6,69.0,30.01,ESE,107,4.0,-999.0,96,-99.99,,,0.00,weatherlink.com 1.10,2013-07-23 14:28:00,
2013-07-23 09:39:00,-999.0,-99.9,0.00,North,-999,-999.0,-999.0,-999,-99.99,,,0.00,weatherlink.com 1.10,2013-07-23 14:39:00,
2013-07-23 09:52:00,-999.0,-99.9,30.03,North,-999,-999.0,-999.0,-999,-99.99,,,0.00,weatherlink.com 1.10,2013-07-23 14:52:00,
2013-07-23 10:07:00,69.9,69.0,30.02,SW,221,6.0,-999.0,97,-99.99,,,0.00,weatherlink.com 1.10,2013-07-23 15:07:00,
2013-07-23 10:22:00,70.0,69.0,30.02,SSW,213,5.0,-999.0,97,-99.99,,,0.00,weatherlink.com 1.10,2013-07-23 15:22:00,
2013-07-23 10:37:00,70.1,69.0,30.02,SSW,207,4.0,-999.0,96,-99.99,,,0.00,weatherlink.com 1.10,2013-07-23 15:37:00,
2013-07-23 10:52:00,69.8,69.0,30.02,SSW,212,0.0,-999.0,96,-99.99,,,0.00,weatherlink.com 1.10,2013-07-23 15:52:00,
2013-07-23 11:07:00,69.8,69.0,30.01,SSW,205,3.0,-999.0,97,-99.99,,,0.00,weatherlink.com 1.10,2013-07-23 16:07:00,
2013-07-23 11:22:00,69.9,69.0,30.00,SW,217,0.0,-999.0,96,-99.99,,,0.00,weatherlink.com 1.10,2013-07-23 16:22:00,
2013-07-23 11:37:00,69.8,69.0,30.00,South,185,0.0,-999.0,96,-99.99,,,0.00,weatherlink.com 1.10,2013-07-23 16:37:00,
2013-07-23 11:52:00,70.1,69.0,30.00,SSW,205,6.0,-999.0,95,-99.99,,,0.00,weatherlink.com 1.10,2013-07-23 16:52:00,
2013-07-23 12:07:00,69.8,68.0,30.01,SW,223,4.0,-999.0,95,-99.99,,,0.00,weatherlink.com 1.10,2013-07-23 17:07:00,
2013-07-23 12:22:00,69.7,68.0,30.01,SW,232,0.0,-999.0,95,-99.99,,,0.00,weatherlink.com 1.10,2013-07-23 17:22:00,
2013-07-23 12:37:00,69.8,68.0,29.99,South,189,3.0,-999.0,95,-99.99,,,0.00,weatherlink.com 1.10,2013-07-23 17:37:00,
2013-07-23 12:52:00,70.2,69.0,29.99,SSW,192,0.0,-999.0,95,-99.99,,,0.00,weatherlink.com 1.10,2013-07-23 17:52:00,
2013-07-23 13:07:00,70.7,69.0,29.98,SSW,192,0.0,-999.0,95,-99.99,,,0.00,weatherlink.com 1.10,2013-07-23 18:07:00,
2013-07-23 13:22:00,71.3,70.0,29.98,SSW,213,3.0,-999.0,95,-99.99,,,0.00,weatherlink.com 1.10,2013-07-23 18:22:00,
2013-07-23 14:08:00,71.6,70.0,29.96,WSW,240,6.0,-999.0,96,-99.99,,,0.00,weatherlink.com 1.10,2013-07-23 19:08:00,
2013-07-23 14:23:00,71.6,71.0,29.95,SW,226,3.0,-999.0,97,-99.99,,,0.00,weatherlink.com 1.10,2013-07-23 19:23:00,
2013-07-23 14:38:00,71.7,71.0,29.95,SSW,212,3.0,-999.0,97,-99.99,,,0.00,weatherlink.com 1.10,2013-07-23 19:38:00,
2013-07-23 14:53:00,71.5,71.0,29.93,SSE,160,2.0,-999.0,97,-99.99,,,0.00,weatherlink.com 1.10,2013-07-23 19:53:00,
2013-07-23 15:08:00,71.4,71.0,29.94,SW,226,5.0,-999.0,97,-99.99,,,0.00,weatherlink.com 1.10,2013-07-23 20:08:00,
2013-07-23 15:23:00,71.5,70.0,29.93,SW,216,4.0,-999.0,96,-99.99,,,0.00,weatherlink.com 1.10,2013-07-23 20:23:00,
2013-07-23 15:38:00,71.8,71.0,29.93,SW,233,3.0,-999.0,96,-99.99,,,0.00,weatherlink.com 1.10,2013-07-23 20:38:00,
2013-07-23 15:53:00,72.1,71.0,29.93,SW,232,0.0,-999.0,96,-99.99,,,0.00,weatherlink.com 1.10,2013-07-23 20:53:00,
2013-07-23 16:08:00,72.2,71.0,29.94,SW,230,5.0,-999.0,95,-99.99,,,0.00,weatherlink.com 1.10,2013-07-23 21:08:00,
2013-07-23 16:23:00,72.4,71.0,29.93,WSW,239,3.0,-999.0,96,-99.99,,,0.00,weatherlink.com 1.10,2013-07-23 21:23:00,
2013-07-23 16:38:00,72.5,71.0,29.93,SW,230,4.0,-999.0,94,-99.99,,,0.00,weatherlink.com 1.10,2013-07-23 21:38:00,
2013-07-23 16:53:00,72.4,71.0,29.92,West,259,3.0,-999.0,94,-99.99,,,0.00,weatherlink.com 1.10,2013-07-23 21:53:00,
2013-07-23 17:08:00,72.3,70.0,29.92,WSW,242,4.0,-999.0,93,-99.99,,,0.00,weatherlink.com 1.10,2013-07-23 22:08:00,
2013-07-23 17:23:00,72.2,70.0,29.92,WSW,242,2.0,-999.0,93,-99.99,,,0.00,weatherlink.com 1.10,2013-07-23 22:23:00,
2013-07-23 17:38:00,72.2,70.0,29.92,WSW,242,3.0,-999.0,94,-99.99,,,0.00,weatherlink.com 1.10,2013-07-23 22:38:00,
2013-07-23 18:08:00,72.1,70.0,29.93,SW,221,4.0,-999.0,94,-99.99,,,0.00,weatherlink.com 1.10,2013-07-23 23:08:00,
2013-07-23 18:23:00,71.8,70.0,29.92,SW,221,3.0,-999.0,95,-99.99,,,0.00,weatherlink.com 1.10,2013-07-23 23:23:00,
2013-07-23 18:38:00,71.7,70.0,29.91,SW,220,4.0,-999.0,95,-99.99,,,0.00,weatherlink.com 1.10,2013-07-23 23:38:00,
2013-07-23 19:23:00,71.3,70.0,29.92,SW,231,0.0,-999.0,96,-99.99,,,0.00,weatherlink.com 1.10,2013-07-24 00:23:00,
2013-07-23 19:38:00,71.1,70.0,29.92,West,261,3.0,-999.0,96,-99.99,,,0.00,weatherlink.com 1.10,2013-07-24 00:38:00,
2013-07-23 20:08:00,71.0,70.0,29.94,West,261,2.0,-999.0,96,-99.99,,,0.00,weatherlink.com 1.10,2013-07-24 01:08:00,
2013-07-23 20:23:00,70.9,70.0,29.95,WSW,253,4.0,-999.0,96,-99.99,,,0.00,weatherlink.com 1.10,2013-07-24 01:23:00,
2013-07-23 20:38:00,70.8,70.0,29.94,WSW,253,0.0,-999.0,97,-99.99,,,0.00,weatherlink.com 1.10,2013-07-24 01:38:00,
2013-07-23 21:08:00,70.8,70.0,29.95,WSW,253,3.0,-999.0,97,-99.99,,,0.00,weatherlink.com 1.10,2013-07-24 02:08:00,
2013-07-23 21:23:00,70.8,70.0,29.95,WSW,253,3.0,-999.0,97,-99.99,,,0.00,weatherlink.com 1.10,2013-07-24 02:23:00,
2013-07-23 21:38:00,70.8,70.0,29.96,SW,235,2.0,-999.0,97,-99.99,,,0.00,weatherlink.com 1.10,2013-07-24 02:38:00,
2013-07-23 21:53:00,70.7,70.0,29.96,SW,235,0.0,-999.0,97,-99.99,,,0.00,weatherlink.com 1.10,2013-07-24 02:53:00,
2013-07-23 22:08:00,70.7,70.0,29.97,SW,235,4.0,-999.0,97,-99.99,,,0.00,weatherlink.com 1.10,2013-07-24 03:08:00,
2013-07-23 22:23:00,70.7,70.0,29.97,SW,235,3.0,-999.0,97,-99.99,,,0.00,weatherlink.com 1.10,2013-07-24 03:23:00,
2013-07-23 22:38:00,70.7,70.0,29.96,SW,235,4.0,-999.0,97,-99.99,,,0.00,weatherlink.com 1.10,2013-07-24 03:38:00,
2013-07-23 22:53:00,70.8,70.0,29.97,SW,235,2.0,-999.0,97,-99.99,,,0.00,weatherlink.com 1.10,2013-07-24 03:53:00,
2013-07-23 23:08:00,70.8,70.0,29.97,WNW,288,1.0,-999.0,97,-99.99,,,0.00,weatherlink.com 1.10,2013-07-24 04:08:00,
2013-07-23 23:23:00,70.9,70.0,29.97,WNW,286,2.0,-999.0,97,-99.99,,,0.00,weatherlink.com 1.10,2013-07-24 04:23:00,
2013-07-23 23:38:00,71.0,70.0,29.97,WNW,284,5.0,-999.0,97,-99.99,,,0.00,weatherlink.com 1.10,2013-07-24 04:38:00,
2013-07-23 23:53:00,71.1,70.0,29.96,WNW,290,3.0,-999.0,97,-99.99,,,0.00,weatherlink.com 1.10,2013-07-24 04:53:00,